createdAt,value
2023-03-26T00:01:51.365Z,21.60
2023-03-26T00:06:56.250Z,20.70
2023-03-26T00:12:00.100Z,10.50
2023-03-26T00:17:04.689Z,13.10
2023-03-26T00:22:11.507Z,12.50
2023-03-26T00:27:15.349Z,13.50
2023-03-26T00:32:19.109Z,9.90
2023-03-26T00:37:27.095Z,11.00
2023-03-26T00:42:32.380Z,10.50
2023-03-26T00:47:36.748Z,7.20
2023-03-26T00:52:40.707Z,11.60
2023-03-26T00:57:46.451Z,8.40
2023-03-26T01:02:50.735Z,9.20
2023-03-26T01:07:54.655Z,8.60
2023-03-26T01:12:58.886Z,12.40
2023-03-26T01:18:10.287Z,8.80
2023-03-26T01:23:24.221Z,8.40
2023-03-26T01:28:33.591Z,8.90
2023-03-26T01:34:06.725Z,8.10
2023-03-26T01:39:40.902Z,7.80
2023-03-26T01:45:03.925Z,10.40
2023-03-26T01:50:09.269Z,10.30
2023-03-26T01:55:14.772Z,27.10
2023-03-26T02:00:36.348Z,38.00
2023-03-26T02:05:56.870Z,18.50
2023-03-26T02:11:11.938Z,8.80
2023-03-26T02:16:18.109Z,8.60
2023-03-26T02:21:26.448Z,7.20
2023-03-26T02:26:34.240Z,13.60
2023-03-26T02:31:38.151Z,11.00
2023-03-26T02:36:43.516Z,13.90
2023-03-26T02:41:47.201Z,24.30
2023-03-26T02:46:51.067Z,19.00
2023-03-26T02:51:56.737Z,14.80
2023-03-26T02:57:01.097Z,16.60
2023-03-26T03:02:06.586Z,16.80
2023-03-26T03:07:14.827Z,13.70
2023-03-26T03:12:18.401Z,13.70
2023-03-26T03:17:22.232Z,13.00
2023-03-26T03:22:26.288Z,12.90
2023-03-26T03:27:30.278Z,12.20
2023-03-26T03:32:34.685Z,7.10
2023-03-26T03:37:38.512Z,7.80
2023-03-26T03:42:42.274Z,12.90
2023-03-26T03:47:46.252Z,10.80
2023-03-26T03:52:51.146Z,13.20
2023-03-26T03:57:56.604Z,9.50
2023-03-26T04:03:06.572Z,11.30
2023-03-26T04:08:10.575Z,14.60
2023-03-26T04:13:16.046Z,11.90
2023-03-26T04:18:20.792Z,11.80
2023-03-26T04:23:24.951Z,9.90
2023-03-26T04:29:03.142Z,13.40
2023-03-26T04:34:14.575Z,12.70
2023-03-26T04:39:18.510Z,12.60
2023-03-26T04:44:25.241Z,11.40
2023-03-26T04:49:29.016Z,11.40
2023-03-26T04:54:32.681Z,9.40
2023-03-26T04:59:37.425Z,8.80
2023-03-26T05:04:41.252Z,12.00
2023-03-26T05:09:45.038Z,7.50
2023-03-26T05:14:48.581Z,12.20
2023-03-26T05:19:52.910Z,7.90
2023-03-26T05:24:56.791Z,10.40
2023-03-26T05:30:06.566Z,11.10
2023-03-26T05:35:11.198Z,12.00
2023-03-26T05:40:17.568Z,11.90
2023-03-26T05:45:22.770Z,9.40
2023-03-26T05:50:26.568Z,7.00
2023-03-26T05:55:30.292Z,10.50
2023-03-26T06:00:34.144Z,12.20
2023-03-26T06:05:39.677Z,9.40
2023-03-26T06:10:44.336Z,10.60
2023-03-26T06:15:48.542Z,8.00
2023-03-26T06:20:54.549Z,7.90
2023-03-26T06:26:00.333Z,8.20
2023-03-26T06:31:04.267Z,7.40
2023-03-26T06:36:08.513Z,8.20
2023-03-26T06:41:12.882Z,8.40
2023-03-26T06:46:17.103Z,6.40
2023-03-26T06:51:21.804Z,5.60
2023-03-26T06:56:25.929Z,7.00
2023-03-26T07:01:30.160Z,7.70
2023-03-26T07:06:35.081Z,7.00
2023-03-26T07:11:39.045Z,41.50
2023-03-26T07:16:43.131Z,12.70
2023-03-26T07:21:48.983Z,17.10
2023-03-26T07:27:21.602Z,10.30
2023-03-26T07:32:59.461Z,9.60
2023-03-26T07:38:38.337Z,16.80
2023-03-26T07:44:12.158Z,9.50
2023-03-26T07:49:18.385Z,24.20
2023-03-26T07:54:25.357Z,11.00
2023-03-26T08:00:18.101Z,27.90
2023-03-26T08:05:35.270Z,21.60
2023-03-26T08:11:11.885Z,20.30
2023-03-26T08:16:37.026Z,32.80
2023-03-26T08:22:02.827Z,11.00
2023-03-26T08:27:38.564Z,15.20
2023-03-26T08:32:49.712Z,13.80
2023-03-26T08:37:54.424Z,11.70
2023-03-26T08:43:30.578Z,17.40
2023-03-26T08:49:02.315Z,15.50
2023-03-26T08:54:14.572Z,10.80
2023-03-26T09:00:22.608Z,10.40
2023-03-26T09:06:17.408Z,16.70
2023-03-26T09:11:46.204Z,14.30
2023-03-26T09:17:01.157Z,8.20
2023-03-26T09:22:41.998Z,11.90
2023-03-26T09:28:16.690Z,7.10
2023-03-26T09:34:30.528Z,5.80
2023-03-26T09:39:47.434Z,8.20
2023-03-26T09:45:32.898Z,10.00
2023-03-26T09:51:17.739Z,10.00
2023-03-26T09:56:45.764Z,7.30
2023-03-26T10:02:08.432Z,18.40
2023-03-26T10:07:53.923Z,20.50
2023-03-26T10:13:15.012Z,13.80
2023-03-26T10:18:54.276Z,10.10
2023-03-26T10:24:21.552Z,8.00
2023-03-26T10:30:10.651Z,3.50
2023-03-26T10:35:58.634Z,3.50
2023-03-26T10:41:25.315Z,3.00
2023-03-26T10:47:02.530Z,5.90
2023-03-26T10:52:41.661Z,7.80
2023-03-26T10:57:58.298Z,9.20
2023-03-26T11:03:29.760Z,15.00
2023-03-26T11:08:44.278Z,15.50
2023-03-26T11:14:09.532Z,9.40
2023-03-26T11:20:17.935Z,8.70
2023-03-26T11:25:39.352Z,11.10
2023-03-26T11:31:16.947Z,12.40
2023-03-26T11:36:30.914Z,9.80
2023-03-26T11:41:35.168Z,5.30
2023-03-26T11:46:44.453Z,14.50
2023-03-26T11:51:49.737Z,9.60
2023-03-26T11:57:07.217Z,13.50
2023-03-26T12:02:14.088Z,11.60
2023-03-26T12:07:23.983Z,13.40
2023-03-26T12:12:38.805Z,11.00
2023-03-26T12:17:43.576Z,3.10
2023-03-26T12:22:48.210Z,30.20
2023-03-26T12:28:14.066Z,67.70
2023-03-26T12:33:28.016Z,100.50
2023-03-26T12:38:36.099Z,70.20
2023-03-26T12:44:50.182Z,107.60
2023-03-26T12:49:16.893Z,27.30
2023-03-26T12:55:12.235Z,29.10
2023-03-26T13:00:48.123Z,23.00
2023-03-26T13:06:10.967Z,9.90
2023-03-26T13:11:38.188Z,13.50
2023-03-26T13:16:47.098Z,9.00
2023-03-26T13:22:05.495Z,7.60
2023-03-26T13:27:44.737Z,5.00
2023-03-26T13:33:12.833Z,8.30
2023-03-26T13:38:24.824Z,7.40
2023-03-26T13:44:23.885Z,15.70
2023-03-26T13:49:52.424Z,23.20
2023-03-26T13:55:26.337Z,7.10
2023-03-26T14:00:58.823Z,8.60
2023-03-26T14:06:23.861Z,5.20
2023-03-26T14:12:32.475Z,7.00
2023-03-26T14:17:53.759Z,4.60
2023-03-26T14:23:28.638Z,17.30
2023-03-26T14:29:06.710Z,23.20
2023-03-26T14:34:58.369Z,15.90
2023-03-26T14:40:17.415Z,8.20
2023-03-26T14:51:04.130Z,13.90
2023-03-26T14:56:34.054Z,23.40
2023-03-26T15:01:56.564Z,10.40
2023-03-26T15:07:24.092Z,13.60
2023-03-26T15:12:35.940Z,21.40
2023-03-26T15:18:28.793Z,25.10
2023-03-26T15:24:31.248Z,11.80
2023-03-26T15:30:17.439Z,15.10
2023-03-26T15:35:58.760Z,6.10
2023-03-26T15:41:40.022Z,8.70
2023-03-26T15:47:28.040Z,18.70
2023-03-26T15:53:05.351Z,8.80
2023-03-26T15:58:44.580Z,11.90
2023-03-26T16:04:01.919Z,14.10
2023-03-26T16:09:23.665Z,11.60
2023-03-26T16:14:36.909Z,17.40
2023-03-26T16:20:10.383Z,31.70
2023-03-26T16:25:33.579Z,51.80
2023-03-26T16:30:38.611Z,37.90
2023-03-26T16:36:34.807Z,35.10
2023-03-26T16:41:50.425Z,58.40
2023-03-26T16:47:35.083Z,103.40
2023-03-26T16:53:01.241Z,147.60
2023-03-26T16:58:30.003Z,144.00
2023-03-26T17:03:45.189Z,132.30
2023-03-26T17:09:00.919Z,122.80
2023-03-26T17:14:41.733Z,119.60
2023-03-26T17:20:33.882Z,105.90
2023-03-26T17:25:57.773Z,282.30
2023-03-26T17:31:05.079Z,135.80
2023-03-26T17:36:12.019Z,36.40
2023-03-26T17:41:54.881Z,51.00
2023-03-26T17:47:01.751Z,57.60
2023-03-26T17:52:48.439Z,89.60
2023-03-26T17:57:59.341Z,48.20
2023-03-26T18:03:26.095Z,85.70
2023-03-26T18:09:12.354Z,152.90
2023-03-26T18:14:33.723Z,88.40
2023-03-26T18:19:54.606Z,179.90
2023-03-26T18:25:02.493Z,231.20
2023-03-26T18:30:25.026Z,146.30
2023-03-26T18:35:52.325Z,196.50
2023-03-26T18:40:57.604Z,150.40
2023-03-26T18:46:04.406Z,135.10
2023-03-26T18:51:09.617Z,65.00
2023-03-26T18:56:32.021Z,101.10
2023-03-26T19:01:38.420Z,55.60
2023-03-26T19:06:44.742Z,89.60
2023-03-26T19:11:57.395Z,77.00
2023-03-26T19:17:05.015Z,17.80
2023-03-26T19:22:12.385Z,25.90
2023-03-26T19:27:17.407Z,22.90
2023-03-26T19:32:32.702Z,26.70
2023-03-26T19:37:51.719Z,35.40
2023-03-26T19:42:58.834Z,43.80
2023-03-26T19:48:15.489Z,43.60
2023-03-26T19:53:19.563Z,24.50
2023-03-26T19:58:24.192Z,39.50
2023-03-26T20:03:38.698Z,35.50
2023-03-26T20:08:43.174Z,18.70
2023-03-26T20:13:47.142Z,27.20
2023-03-26T20:18:58.024Z,20.30
2023-03-26T20:24:02.197Z,10.90
2023-03-26T20:29:06.220Z,23.40
2023-03-26T20:34:20.910Z,15.90
2023-03-26T20:39:25.890Z,16.00
2023-03-26T20:44:29.478Z,18.80
2023-03-26T20:49:33.047Z,7.80
2023-03-26T20:54:37.149Z,7.60
2023-03-26T20:59:40.994Z,14.10
2023-03-26T21:04:45.406Z,11.60
2023-03-26T21:09:49.577Z,50.60
2023-03-26T21:14:55.931Z,46.50
2023-03-26T21:20:09.329Z,34.50
2023-03-26T21:25:49.007Z,13.50
2023-03-26T21:30:53.533Z,11.20
2023-03-26T21:36:00.594Z,87.70
2023-03-26T21:41:05.201Z,51.40
2023-03-26T21:46:10.186Z,41.80
2023-03-26T21:51:19.722Z,25.70
2023-03-26T21:56:50.466Z,32.20
2023-03-26T22:02:21.946Z,47.90
2023-03-26T22:07:58.939Z,278.10
2023-03-26T22:13:02.592Z,229.30
2023-03-26T22:18:07.774Z,130.60
2023-03-26T22:23:12.367Z,70.20
2023-03-26T22:28:16.517Z,40.10
2023-03-26T22:33:20.433Z,38.50
2023-03-26T22:38:24.664Z,24.90
2023-03-26T22:43:29.050Z,17.80
2023-03-26T22:48:33.590Z,15.30
2023-03-26T22:53:37.515Z,19.60
2023-03-26T22:58:42.591Z,19.10
2023-03-26T23:03:47.108Z,15.70
2023-03-26T23:08:50.618Z,34.40
2023-03-26T23:13:54.213Z,21.70
2023-03-26T23:18:58.344Z,20.40
2023-03-26T23:24:02.214Z,21.30
2023-03-26T23:29:10.004Z,18.50
2023-03-26T23:34:13.715Z,18.40
2023-03-26T23:39:17.759Z,23.90
2023-03-26T23:44:21.490Z,19.00
2023-03-26T23:49:25.396Z,10.90
2023-03-26T23:54:30.458Z,8.60
2023-03-26T23:59:35.916Z,27.00
